Broken Arrow, Oklahoma
Current Conditions -  °F | °C
As of 7:05 AM on Tuesday 21 Oct 2014 (Local Time) from KRVS Reporting Station
Haze Haze  
Wind Chill: 56°   Ceiling: Unl
Heat Index: 56°   Visibility: 5mi
Dew Point: 56°   Wind: 0mph
Humidity: 100%   Direction: NA
Pressure: 30.08"   Gusts: NA
Location:  36.05°N, 95.79°W
Report Text: KRVS 211205Z 00000KT 5SM BR SCT046 13/13 A3008 RMK AO2 T01330133
Loading
Personal Weather Stations






























Interactive Weather Map
Tropical Storm Tracking
New forecast layout! Learn more

10-Day Weather Forecast

Advertisements
Track Severe Weather on mobile